ADDS TAF Data INFO
IDs: Format: Raw Decoded Include METARs

Data at: 1511 UTC 16 Jan 2018

KPHF 161256Z 1613/1712 VRB03KT 1/4SM FZFG OVC002
  TEMPO 1613/1614 1SM BR OVC004
  FM161500 VRB03KT 3SM BR BKN006
  FM161700 VRB03KT P6SM SCT006
  FM170800 32004KT P6SM OVC060